Tiempo atmosférico en la estación meteorológica de Santiago de Compostela Aeropuerto, A Coruña (370 m.)



Fecha
DESCASC
Temp. máxima en grados centígrados (hora)
DESCASC
Temp. mínima en grados centígrados (hora)
DESCASC
Temp. media en grados centígrados
DESCASC
Racha de viento máxima en m/sg (hora)
DESCASC
Velocidad máxima media en intervalos de 10 minutos(hora)
DESCASC
Precipitaciones diarias en mm
DESCASC
Precipitaciones de 00:00 a 06:00 en mm
DESCASC
Precipitaciones de 06:00 a 12:00 en mm
DESCASC
Precipitaciones de 12:00 a 18:00 en mm
DESCASC
Precipitaciones de 18:00 a 24:00 en mm
DESCASC
22-11-2020 18.2 (16:30) 7.9 (23:30) 13.1 4.17 (14:50) 2.5 (14:40) 0 0 0 0 0
21-11-2020 21.1 (16:40) 7.5 (07:00) 14.3 4.72 (12:30) 2.5 (17:40) 0 0 0 0 0
20-11-2020 17.2 (16:30) 6.9 (07:20) 12.1 7.22 (11:40) 2.5 (11:40) 0 0 0 0 0
19-11-2020 17.6 (14:40) 10.2 (00:00) 13.9 8.33 (16:10) 4.17 (00:20) 0 0 0 0 0
18-11-2020 18.6 (16:40) 13.5 (00:00) 16.1 10.28 (03:20) 6.94 (03:00) 6.3 3.7 1.4 0 1.2
17-11-2020 18.7 (14:30) 7.1 (00:00) 12.9 9.17 (22:40) 5.83 (22:40) 0 0 0 0 0
16-11-2020 16.1 (16:40) 5.6 (00:00) 10.9 2.5 (00:10) 1.67 (00:10) 0 0 0 0 0
15-11-2020 16.7 (05:00) 10.6 (00:00) 13.7 16.11 (06:00) 8.89 (05:00) 31.6 20.5 8.5 2.4 0.2
14-11-2020 16.3 (14:30) 11.4 (00:00) 13.8 14.44 (16:40) 7.78 (17:10) 5.6 0 0 0.3 5.3
13-11-2020 18.3 (15:40) 9.5 (00:00) 13.9 10.83 (15:10) 6.67 (15:10) 0 0 0 0 0
12-11-2020 18.3 (13:50) 12.1 (00:00) 15.2 9.72 (13:00) 5.83 (13:20) 0.3 0.3 0 0 0
11-11-2020 16.1 (13:30) 8.4 (00:00) 12.3 11.67 (14:10) 7.22 (14:10) 0.3 0 0 0 0.3
10-11-2020 16.9 (16:10) 9.4 (00:00) 13.1 5.83 (11:10) 3.06 (11:20) 0 0 0 0 0
09-11-2020 15.7 (13:50) 9 (00:00) 12.3 10.28 (02:10) 6.11 (02:10) 26 24.7 1.1 0.2 0
08-11-2020 16.1 (14:50) 11.5 (00:00) 13.8 16.11 (06:10) 8.33 (13:10) 24.2 2.3 15.8 3.8 2.3
07-11-2020 14.7 (13:50) 10.1 (00:00) 12.4 11.39 (12:00) 6.67 (12:00) 11 0 0.1 9.7 1.2
06-11-2020 14.8 (10:10) 12.3 (00:00) 13.6 10.83 (10:10) 5.28 (10:10) 3.1 0 0.3 1.1 1.7
05-11-2020 15.1 (22:20) 8.1 (00:00) 11.6 8.89 (00:50) 3.33 (01:20) 0 0 0 0 0
04-11-2020 13.4 (14:40) 3.8 (00:00) 8.6 11.67 (23:20) 3.61 (20:10) 0 0 0 0 0
03-11-2020 13.4 (14:10) 4.7 (00:00) 9 9.72 (15:40) 5.28 (12:50) 0 0 0 0 0
02-11-2020 17.4 (06:30) 7.2 (00:00) 12.3 13.89 (04:30) 8.33 (11:20) 15.3 6.3 8.1 0.9 0
01-11-2020 17.7 (15:40) 16.2 (00:00) 17 15 (00:40) 7.5 (00:30) 25 5.7 7.9 7.9 3.5
31-10-2020 16.7 (15:40) 14.4 (00:00) 15.6 12.5 (22:30) 7.5 (09:00) 16.3 0.5 2.3 8.8 4.7
30-10-2020 19.1 (15:50) 9.1 (00:00) 14.1 8.33 (12:40) 5 (13:50) 0 0 0 0 0
29-10-2020 16.3 (15:40) 10.4 (00:00) 13.3 7.22 (15:10) 4.17 (15:00) 0 0 0 0 0
28-10-2020 16 (15:20) 11.1 (00:00) 13.6 6.67 (15:10) 3.89 (16:50) 0.5 0 0.3 0.1 0.1
27-10-2020 15 (18:20) 10.4 (00:00) 12.7 15 (16:20) 8.06 (10:50) 9.4 0.6 0.5 7 1.3
26-10-2020 13.4 (15:10) 5.3 (00:00) 9.3 8.33 (13:30) 4.72 (13:30) 3.6 3 0.1 0.5 0

Gráficas

Temp. máximas Temp. mínimas Temp. medias Precipitaciones Rachas de viento máximas Velocidades máximas media en intervalos de 10 minutos

Datos horarios

Fecha y hora oficial Temperatura (ºC) Velocidad del viento (km/h) Dirección del viento Racha (km/h) Dirección de racha Precipitación (mm) Presión (hPa) Tendencia (hPa) Humedad (%)
2020-11-24 23:00:00 11.1 14 Sur -- -- -- 970.2 -1 97
2020-11-24 22:00:00 11.9 14 Sudoeste 32 Sur 1.8 971.2 -0.2 91
2020-11-24 21:00:00 11.7 15 Sudoeste 37 Sur 3.9 971 -- 94
2020-11-24 20:00:00 12.4 17 Sur 33 Sur 0.2 971.2 -- 87
2020-11-24 19:00:00 13 18 Sur 33 Sur 0 971.4 -- 82
2020-11-24 18:00:00 12.6 19 Sur 33 Sur 0 971.7 -- 87
2020-11-24 17:00:00 12.7 15 Sudoeste 37 Sur 0.1 972.4 -- 86
2020-11-24 16:00:00 13.3 17 Sur 35 Sur 0 972.7 -- 82
2020-11-24 15:00:00 13.8 19 Sur 35 Sur 0 973.5 -- 80
2020-11-24 14:00:00 12.6 9 Sur 22 Sur 0 974.6 -- 84
2020-11-24 13:00:00 11.8 8 Sur 13 Sur 0 975.7 -- 84
2020-11-24 12:00:00 11.1 5 Sudeste 13 Sur 0 976.7 -- 83
2020-11-24 11:00:00 10.7 6 Sur 11 Sur 0 977.2 -- 85
2020-11-24 10:00:00 9.4 7 Sur 11 Sur 0 977.4 -- 87
2020-11-24 09:00:00 6.8 5 Sur 11 Sudeste 0 977.5 -- 93
2020-11-24 08:00:00 6.5 5 Sur 11 Sur 0 977.8 -- 97
2020-11-24 07:00:00 6.2 7 Sur 15 Sudoeste 0 978 -- 97
2020-11-24 06:00:00 8.3 9 Sudoeste 18 Sudoeste 0 978.2 -- 94
2020-11-24 05:00:00 7.3 4 Sur -- -- 0 978.3 -- 97
2020-11-24 04:00:00 7.2 5 Sur 5 Sur 0 978.6 -- 98
2020-11-24 03:00:00 7.5 5 Sur 8 Sur 0 978.8 -- 95
2020-11-24 02:00:00 8.3 5 Sur -- -- 0 979.6 -- 92
2020-11-24 01:00:00 8.3 5 Sur -- -- 0 980 -- 97
2020-11-24 00:00:00 8.8 6 Sur 9 Sur 0 980.5 -- 96
2020-11-23 23:00:00 9.6 6 Sur -- -- 0 980.9 -- 93
2020-11-23 22:00:00 9.4 8 Sur 9 Sur 0 981.2 -- 92
2020-11-23 21:00:00 10.9 6 Sur 9 Sur 0 981.4 -- 86
2020-11-23 20:00:00 11.3 5 Sur 8 Sur 0 981.4 -- 82
2020-11-23 19:00:00 11.4 0 Calma 8 Sudoeste 0 981.6 -- 78
2020-11-23 18:00:00 13.1 3 Sudoeste 9 Oeste 0 981.5 -- 71
2020-11-23 17:00:00 15.5 4 Sudoeste 13 Sudoeste 0 981.5 -- 63
2020-11-23 16:00:00 15.8 9 Sudoeste 17 Sudoeste 0 981.6 -- 59
2020-11-23 15:00:00 16.8 6 Sur 11 Sur 0 981.9 -- 57
2020-11-23 14:00:00 16.1 5 Sur 11 Sudeste 0 982.4 -- 61
2020-11-23 13:00:00 14 0 Calma 5 Este 0 983.3 -- 69
2020-11-23 12:00:00 12.3 0 Calma 4 Norte 0 983.9 -- 69
2020-11-23 11:00:00 11.1 0 Calma 5 Este 0 984 -- 72
2020-11-23 10:00:00 8.9 0 Calma 4 Sudeste 0 984 -- 77
2020-11-23 09:00:00 3.3 0 Calma 8 Noroeste 0 983.7 -- 95
2020-11-23 08:00:00 6.6 0 Calma 5 Nordeste 0 983.3 -- 85
2020-11-23 07:00:00 7.2 0 Calma 4 Nordeste 0 983.3 -- 83
2020-11-23 06:00:00 7.3 0 Calma 4 Norte 0 983.3 -- 84
2020-11-23 05:00:00 7.6 2 Sudeste 5 Sudeste 0 983.5 -- 82
2020-11-23 04:00:00 7.2 4 Sur 5 Sur 0 983.8 -- 88
2020-11-23 03:00:00 4.8 0 Calma 5 Oeste 0 984 -- 96
2020-11-23 02:00:00 8.1 3 Sur 8 Sur 0 984.3 -- 91
2020-11-23 01:00:00 8.6 4 Sur 5 Sur 0 984.7 -- 94
2020-11-23 00:00:00 8.3 3 Noroeste 8 Oeste 0 984.9 -- 96
2020-11-22 23:00:00 8.4 6 Oeste 8 Noroeste 0 984.9 -- 95
2020-11-22 22:00:00 8.6 5 Oeste 8 Noroeste 0 984.8 -- 92
2020-11-22 21:00:00 9.9 0 Calma 4 Norte 0 984.7 -- 84
2020-11-22 20:00:00 9.5 3 Oeste 8 Norte 0 984.4 -- 83
2020-11-22 19:00:00 12.6 0 Calma 4 Oeste 0 984.2 -- 74
2020-11-22 18:00:00 13.8 2 Sur 5 Sudoeste 0 983.8 -- 72
2020-11-22 17:00:00 17.3 2 Oeste 13 Oeste 0 983.4 -- 58
2020-11-22 16:00:00 17.7 4 Oeste 13 Oeste 0 983.3 -- 46
2020-11-22 15:00:00 17.7 6 Oeste 15 Oeste 0 983.5 -- 44
2020-11-22 14:00:00 17.7 5 Sudoeste 11 Oeste 0 983.9 -- 50
2020-11-22 13:00:00 15.9 3 Sur 9 Sur 0 984.5 -- 56
2020-11-22 12:00:00 14.4 6 Sur 11 Sudeste 0 984.7 -- 62
2020-11-22 11:00:00 12.3 5 Sur 9 Sur 0 984.8 -- 66
2020-11-22 10:00:00 10.5 5 Sur 8 Sur 0 984.5 -- 72
2020-11-22 09:00:00 8.4 3 Sur 8 Sur 0 984.2 -- 74
2020-11-22 08:00:00 8.4 3 Sur 5 Sur 0 983.9 -- 78
2020-11-22 07:00:00 9.1 3 Sur 5 Sur 0 983.4 -- 78
2020-11-22 06:00:00 9.4 3 Sudeste 5 Sur 0 983.1 -- 75
2020-11-22 05:00:00 9.9 2 Sur 5 Sudeste 0 982.8 -- 74
2020-11-22 04:00:00 10.2 3 Sur 5 Sur 0 982.7 -- 76
2020-11-22 03:00:00 10.3 2 Sur 5 Sur 0 982.4 -- 81
2020-11-22 02:00:00 9.4 3 Sur 8 Sur 0 982.3 -- 97
2020-11-22 01:00:00 11 6 Sur 8 Sur 0 982.4 -- 96
2020-11-22 00:00:00 10.7 3 Sur 9 Sur 0 982.4 -- 93
2020-11-21 23:00:00 11.8 0 Calma -- -- 0 982.4 -- 92
2020-11-21 22:00:00 11.2 3 Sur 5 Sur 0 982.4 -- 90
2020-11-21 21:00:00 12.4 0 Calma 9 Sur 0 982.1 -- 87
2020-11-21 20:00:00 12.9 5 Sur 5 Sur 0 982.1 -- 87
2020-11-21 19:00:00 13.9 0 Calma 8 Oeste 0 981.9 -- 84
2020-11-21 18:00:00 14.6 7 Oeste 11 Oeste 0 981.6 -- 80
2020-11-21 17:00:00 18.9 5 Oeste 17 Oeste 0 981.3 -- 61
2020-11-21 16:00:00 19.4 0 Calma 5 Este 0 981.2 -- 58
2020-11-21 15:00:00 19.3 2 Sudeste 15 Sudeste 0 981.6 -- 57
2020-11-21 14:00:00 18.9 5 Sudeste 15 Sudeste 0 982.1 -- 57
2020-11-21 13:00:00 17.4 8 Sudeste 17 Sudeste 0 982.8 -- 59
2020-11-21 12:00:00 15.1 7 Sudeste 15 Sudeste 0 983.6 -- 70
2020-11-21 11:00:00 12.5 5 Sudeste 13 Sudeste 0 983.6 -- 73
2020-11-21 10:00:00 10.4 0 Calma 5 Este 0 983.7 -- 77
2020-11-21 09:00:00 8.4 0 Calma 8 Sudeste 0 983.2 -- 84
2020-11-21 08:00:00 8.9 0 Calma 5 Este 0 983.2 -- 85
2020-11-21 07:00:00 7.6 2 Este 8 Este 0 983 -- 92
2020-11-21 06:00:00 8.7 3 Este 8 Este 0 983.3 -- 86
2020-11-21 05:00:00 8.9 0 Calma 11 Sudeste 0 983.6 -- 86
2020-11-21 04:00:00 8.9 3 Este 11 Este 0 983.8 -- 88
2020-11-21 03:00:00 9.6 3 Este 8 Nordeste 0 984 -- 81
2020-11-21 02:00:00 8.8 0 Calma 8 Nordeste 0 984.5 -- 84
2020-11-21 01:00:00 9.6 2 Este 11 Este 0 984.9 -- 82
2020-11-21 00:00:00 10.2 2 Este 13 Este 0 985.2 -- 79
2020-11-20 23:00:00 9.8 2 Nordeste 13 Este 0 985.6 -- 83
2020-11-20 22:00:00 10.1 2 Este 17 Este 0 985.7 -- 82
2020-11-20 21:00:00 10.5 6 Sudeste 17 Este 0 986 -- 83
2020-11-20 20:00:00 11.5 3 Este 13 Nordeste 0 986.5 -- 79
2020-11-20 19:00:00 12.6 0 Calma 9 Este 0 986.2 -- 74
2020-11-20 18:00:00 13.7 0 Calma 9 Este 0 986.1 -- 79
2020-11-20 17:00:00 16.3 3 Este 11 Sudeste 0 985.8 -- 64
2020-11-20 16:00:00 16.8 4 Este 17 Este 0 985.9 -- 57
2020-11-20 15:00:00 16.6 4 Este 17 Este 0 986.5 -- 61
2020-11-20 14:00:00 15.6 5 Este 17 Este 0 987.5 -- 66
2020-11-20 13:00:00 13.8 8 Este 26 Este 0 988.6 -- 71
2020-11-20 12:00:00 12.6 6 Este 26 Sudeste 0 989.2 -- 75
2020-11-20 11:00:00 10.9 8 Este 24 Este 0 989.2 -- 80
2020-11-20 10:00:00 9.2 5 Este 18 Este 0 989.4 -- 87
2020-11-20 09:00:00 7.5 4 Sudeste 15 Sudeste 0 989.3 -- 94
2020-11-20 08:00:00 7.4 3 Este -- -- -- 989.5 -- 93
2020-11-20 07:00:00 7.5 3 Este 15 Este 0 989.6 -- 94
2020-11-20 06:00:00 7.8 3 Norte 15 Nordeste 0 989.7 -- 92
2020-11-20 05:00:00 8.1 3 Nordeste 13 Nordeste 0 989.9 -- 92
2020-11-20 04:00:00 8.1 2 Norte 11 Nordeste 0 990.5 -- 94
2020-11-20 03:00:00 8.7 3 Sudeste 17 Este 0 990.6 -- 92
2020-11-20 02:00:00 10.2 3 Este 15 Este 0 991.2 -- 88
2020-11-20 01:00:00 10.4 4 Nordeste 17 Nordeste 0 992 -- 88
2020-11-20 00:00:00 10.4 4 Nordeste 24 Este 0 991.9 -- 89
2020-11-19 23:00:00 10.4 4 Este 24 Nordeste 0 991.9 -- 89
2020-11-19 22:00:00 10.3 5 Nordeste 17 Norte 0 992 -- 90
2020-11-19 21:00:00 10.8 3 Este 13 Nordeste 0 991.4 -- 90
2020-11-19 20:00:00 11.1 4 Este 15 Este 0 991.5 -- 89
2020-11-19 19:00:00 11.3 4 Nordeste 22 Este 0 991.7 -- 89
2020-11-19 18:00:00 13.1 5 Este 24 Este 0 991.6 -- 86
2020-11-19 17:00:00 14.5 7 Nordeste 30 Norte 0 991 -- 85
2020-11-19 16:00:00 16 11 Norte 24 Nordeste 0 990.8 -- 79
2020-11-19 15:00:00 17 7 Norte 21 Norte 0 990.4 -- 79
2020-11-19 14:00:00 16.7 7 Nordeste 18 Nordeste 0 991.1 -- 78
2020-11-19 13:00:00 16.3 3 Nordeste 13 Nordeste 0 991.4 -- 79
2020-11-19 12:00:00 14.9 3 Nordeste 18 Este 0 991.9 -- 82
2020-11-19 11:00:00 13.2 6 Este 18 Este 0 991.4 -- 87
2020-11-19 10:00:00 11.6 3 Este 17 Nordeste 0 991.2 -- 94
2020-11-19 09:00:00 10.5 2 Nordeste 13 Este 0 990.6 -- 97
2020-11-19 08:00:00 10.9 4 Este 22 Nordeste 0 990.2 -- 97
2020-11-19 07:00:00 11.4 6 Nordeste 26 Norte 0 990 -- 99
2020-11-19 06:00:00 12 9 Norte 21 Norte 0 989 -- 99
2020-11-19 05:00:00 12.5 4 Este 18 Norte 0 988.3 -- 99
2020-11-19 04:00:00 13.2 5 Norte 18 Norte 0 988.3 -- 99
2020-11-19 03:00:00 13.7 3 Norte 18 Norte 0 987.5 -- 99
2020-11-19 02:00:00 13.7 5 Norte 18 Norte 0 987.7 -- 99
2020-11-19 01:00:00 14 9 Norte 22 Norte 0 987.7 -- 99
2020-11-19 00:00:00 13.8 16 Norte 22 Norte 0 987.6 -- 99
2020-11-18 23:00:00 14.1 0 Calma 8 Sur 0 986.8 -- 98
2020-11-18 22:00:00 14.5 4 Norte 11 Nordeste 0 985.9 -- 98
2020-11-18 21:00:00 15.3 3 Nordeste 18 Norte 1.2 985.3 -- 97
2020-11-18 20:00:00 15.5 4 Noroeste 15 Noroeste 0 985.2 -- 95
2020-11-18 19:00:00 16.1 10 Norte 15 Noroeste 0 984 -- 96
2020-11-18 18:00:00 17 8 Oeste 13 Oeste 0 983.1 -- 89
2020-11-18 17:00:00 18.5 5 Sudoeste 15 Sudoeste 0 982.2 -- 84
2020-11-18 16:00:00 17.7 8 Sudoeste 28 Sur 0 981.6 -- 86
2020-11-18 15:00:00 17.3 21 Sur 32 Sur 0 981.5 -- 89
2020-11-18 14:00:00 16.8 14 Sudoeste 21 Sudoeste 0 981.6 -- 94
2020-11-18 13:00:00 17 8 Sudoeste 21 Sudoeste 0 981.6 -- 93
2020-11-18 12:00:00 17 11 Sur 22 Sur 0 981.5 -- 93
2020-11-18 11:00:00 16.6 14 Sur 26 Sur 0 981.1 -- 94
2020-11-18 10:00:00 15.9 17 Sur 26 Sur 0.7 980.6 -- 98
2020-11-18 09:00:00 15.7 16 Sur 28 Sudoeste 0.2 979.9 -- 98
2020-11-18 08:00:00 15.5 15 Sur 26 Sudoeste 0 979.3 -- 98
2020-11-18 07:00:00 15.4 13 Sur 28 Sur 0.5 979.2 -- 99
2020-11-18 06:00:00 15.4 14 Sur 30 Sur 1.7 979 -- 99
2020-11-18 05:00:00 15.5 10 Sur 30 Sur 1.5 979 -- 98
2020-11-18 04:00:00 15.6 14 Sur 37 Sur 0.4 978.9 -- 98
2020-11-18 03:00:00 15.5 25 Sur 33 Sur 0.1 978.5 -- 97
2020-11-18 02:00:00 15.5 17 Sur 32 Sur 0 978.6 -- 95
2020-11-18 01:00:00 16.1 18 Sur 32 Sur 0 978.7 -- 86
2020-11-18 00:00:00 15.6 10 Sur 22 Sur 0 978.7 -- 86
2020-11-17 23:00:00 15.4 17 Sur 33 Sur 0 979.1 -- 86
2020-11-17 22:00:00 14.5 13 Sur 26 Sudoeste 0 979.1 -- 91
2020-11-17 21:00:00 14 15 Sur 24 Sur 0 979.3 -- 95
2020-11-17 20:00:00 14.1 13 Sudoeste 22 Sudoeste 0 979.3 -- 93
2020-11-17 19:00:00 13.9 11 Sudoeste 22 Oeste 0 979.1 -- 93
2020-11-17 18:00:00 14.6 12 Sudoeste 24 Sudoeste 0 979 -- 82
2020-11-17 17:00:00 16.5 8 Sudoeste 17 Sur 0 978.8 -- 74
2020-11-17 16:00:00 17.9 11 Sudoeste 26 Sudoeste 0 978.7 -- 65
2020-11-17 15:00:00 18.3 13 Sudoeste 30 Sudoeste 0 978.9 -- 58
2020-11-17 14:00:00 18.4 15 Sur 24 Sur 0 979.3 -- 56
2020-11-17 13:00:00 17.4 11 Sur 15 Sur 0 980 -- 68
2020-11-17 12:00:00 15.7 11 Sur 17 Sur 0 980.6 -- 73
2020-11-17 11:00:00 13.6 10 Sur 18 Sudeste 0 980.9 -- 78
2020-11-17 10:00:00 11.9 6 Sudeste 13 Sudeste 0 980.6 -- 81
2020-11-17 09:00:00 10.3 9 Sudeste 13 Sudeste 0 980.3 -- 85
2020-11-17 08:00:00 9.8 9 Sudeste 15 Sudeste 0 980.1 -- 89
2020-11-17 07:00:00 8.6 8 Sudeste 13 Sudeste 0 980.2 -- 93
2020-11-17 06:00:00 7.7 4 Sur 11 Sur 0 980.4 -- 94
2020-11-17 05:00:00 8 6 Sur 11 Sudeste 0 980.6 -- 97
2020-11-17 04:00:00 7.6 4 Sur 9 Sudeste 0 980.8 -- 98
2020-11-17 03:00:00 8.6 3 Sudeste 8 Sur 0 981 -- 99
2020-11-17 02:00:00 8.7 6 Sur 9 Sur 0 981.7 -- 99
2020-11-17 01:00:00 8.9 3 Sur 5 Sur 0 982.1 -- 99
2020-11-17 00:00:00 9.3 4 Sur 5 Sudeste 0 982.2 -- 99
2020-11-16 23:00:00 8.3 0 Calma 4 Norte 0 982.2 -- 98
2020-11-16 22:00:00 10 0 Calma -- -- 0 982.2 -- 96
2020-11-16 21:00:00 10.4 0 Calma 4 Sudeste 0 981.9 -- 93
2020-11-16 20:00:00 9.5 0 Calma 4 Nordeste 0 982.1 -- 96
2020-11-16 19:00:00 11.5 0 Calma 4 Nordeste 0 981.9 -- 90
2020-11-16 18:00:00 13 0 Calma 4 Noroeste 0 981.8 -- 84
2020-11-16 17:00:00 15.1 0 Calma 5 Noroeste 0 981.6 -- 74
2020-11-16 16:00:00 15.5 0 Calma 8 Sudeste 0 981.8 -- 68
2020-11-16 15:00:00 14.3 0 Calma 5 Nordeste 0 981.8 -- 71
2020-11-16 14:00:00 13.7 0 Calma 8 Norte 0 982.3 -- 74
2020-11-16 13:00:00 11.9 2 Sur 8 Sur 0 982.8 -- 99
2020-11-16 12:00:00 10.1 3 Sudeste 8 Sudeste 0 982.9 -- 99
2020-11-16 11:00:00 9.1 3 Sudeste 8 Sudeste 0 982.7 -- 99
2020-11-16 10:00:00 7.8 3 Sur 9 Sur 0 982.5 -- 99
2020-11-16 09:00:00 5.6 4 Noroeste 9 Oeste 0 982.2 -- 99
2020-11-16 08:00:00 6.8 0 Calma 5 Sur 0 981.3 -- 99
2020-11-16 07:00:00 6.8 4 Sur 5 Sur 0 981.1 -- 99
2020-11-16 06:00:00 8 2 Sur -- -- 0 981 -- 99
2020-11-16 05:00:00 8.2 0 Calma 2 Sur 0 980.9 -- 99
2020-11-16 04:00:00 8.8 0 Calma 4 Sur 0 981.3 -- 98
2020-11-16 03:00:00 9.5 0 Calma -- -- 0 980.5 -- 98
2020-11-16 02:00:00 9.9 0 Calma 5 Sudoeste 0 980.9 -- 98
2020-11-16 01:00:00 10.3 0 Calma 9 Sudoeste 0 980 -- 96
2020-11-16 00:00:00 10.7 4 Sudoeste -- -- 0 980 -- 97
2020-11-15 23:00:00 11.1 0 Calma 8 Oeste 0 979.6 -- 97
2020-11-15 22:00:00 11.4 0 Calma 9 Noroeste 0 979.6 -- 97
2020-11-15 21:00:00 11.7 9 Noroeste 15 Noroeste 0 978.7 -- 94
2020-11-15 20:00:00 11.7 4 Norte 13 Norte 0 977.8 -- 94
2020-11-15 19:00:00 12.4 10 Norte 22 Noroeste 0.2 977 -- 95
2020-11-15 18:00:00 13 4 Oeste 21 Noroeste 0 976.1 -- 95
2020-11-15 17:00:00 13.7 17 Noroeste 28 Noroeste 0.1 975.9 -- 93
2020-11-15 16:00:00 13.7 5 Sudoeste 18 Sudoeste 0 975.2 -- 97
2020-11-15 15:00:00 13.9 7 Sur 22 Oeste 0.1 974.7 -- 95
2020-11-15 14:00:00 13.6 11 Oeste 28 Oeste 0.7 974.4 -- 96
2020-11-15 13:00:00 13.5 19 Oeste 33 Oeste 1.5 973.8 -- 96
2020-11-15 12:00:00 13.9 26 Noroeste 45 Sudoeste 4.3 973.5 -- 96
2020-11-15 11:00:00 16 24 Sudoeste 46 Sudoeste 1.5 972.2 -- 95
2020-11-15 10:00:00 16.1 20 Sudoeste 48 Sudoeste 0 972 -- 92
2020-11-15 09:00:00 15.9 24 Sudoeste 50 Sudoeste 0 971.6 -- 93
2020-11-15 08:00:00 16.2 28 Oeste 54 Sudoeste 1.8 971 -- 95
2020-11-15 07:00:00 16.6 27 Sudoeste 52 Sudoeste 0.9 970.3 -- 97
2020-11-15 06:00:00 16.6 30 Sudoeste 58 Sudoeste 1.6 970 -- 96
2020-11-15 05:00:00 16.6 32 Sudoeste 54 Oeste 3.2 970 -- 96
2020-11-15 04:00:00 16.4 27 Sudoeste 54 Sudoeste 3.6 970.3 -- 98
2020-11-15 03:00:00 16.2 26 Sudoeste 54 Sudoeste 1.8 970.4 -- 98
2020-11-15 02:00:00 15.9 18 Sudoeste 41 Sudoeste 8.4 970.8 -- 99
2020-11-15 01:00:00 15.9 22 Sudoeste 48 Sudoeste 1.9 971.1 -- 98
2020-11-15 00:00:00 15.6 20 Sudoeste 35 Sur 2.1 971.5 -- 99
2020-11-14 23:00:00 15.2 18 Sur 35 Sudoeste 0.9 971.9 -- 98
2020-11-14 22:00:00 14.9 22 Sudoeste 42 Sur 0.2 972.1 -- 99
2020-11-14 21:00:00 14.3 17 Sur 30 Sur 0.9 972 -- 98
2020-11-14 20:00:00 14.4 16 Sudoeste 45 Sudoeste 0 972.2 -- 96
2020-11-14 19:00:00 14.6 21 Sudoeste 50 Sudoeste 1.2 971.9 -- 96
2020-11-14 18:00:00 15.5 22 Sudoeste 46 Sur 0.3 971.6 -- 97
2020-11-14 17:00:00 15.7 24 Sudoeste 52 Sudoeste 0 971.4 -- 95
2020-11-14 16:00:00 15.6 22 Sur 37 Sur 0 971.2 -- 94
2020-11-14 15:00:00 16.2 19 Sur 45 Sur 0 971.1 -- 87
2020-11-14 14:00:00 15.8 21 Sur 42 Sudoeste 0 971.3 -- 87
2020-11-14 13:00:00 16.1 23 Sur 39 Sudoeste 0 971.8 -- 83
2020-11-14 12:00:00 15.8 16 Sudoeste 35 Sur 0 972.3 -- 82
2020-11-14 11:00:00 14.9 23 Sur 37 Sur 0 972.3 -- 85
2020-11-14 10:00:00 14.6 17 Sur 37 Sur 0 972.3 -- 83
2020-11-14 09:00:00 14.4 23 Sur 35 Sur 0 972.1 -- 83
2020-11-14 08:00:00 13.4 13 Sur 28 Sur 0 971.6 -- 86
2020-11-14 07:00:00 12.8 16 Sur 26 Sudeste 0 971.2 -- 87
2020-11-14 06:00:00 13.3 13 Sur 24 Sur 0 971.7 -- 85
2020-11-14 05:00:00 13.8 14 Sur 24 Sur 0 972 -- 84
2020-11-14 04:00:00 12 2 Sudoeste 13 Sur 0 972.8 -- 92
2020-11-14 03:00:00 11.6 5 Sur 11 Sudeste 0 972.6 -- 93
2020-11-14 02:00:00 12 6 Sur 13 Sur 0 973.2 -- 92
2020-11-14 01:00:00 12.1 9 Sur 15 Sur 0 973.6 -- 92
2020-11-14 00:00:00 12.2 9 Sur 15 Sur 0 974.2 -- 92
2020-11-13 23:00:00 12.9 9 Sur 22 Sur 0 974.1 -- 90
2020-11-13 22:00:00 13.4 13 Sur 21 Sur 0 973.9 -- 89
2020-11-13 21:00:00 13.3 8 Sur 15 Sur 0 974 -- 89
2020-11-13 20:00:00 12.6 11 Sur 15 Sur 0 974 -- 91
2020-11-13 19:00:00 13.3 9 Sudoeste 13 Sudoeste 0 973.8 -- 89
2020-11-13 18:00:00 14.5 8 Sur 15 Sudoeste 0 973.7 -- 85
2020-11-13 17:00:00 16.9 8 Sudoeste 24 Sudoeste 0 973.9 -- 75
2020-11-13 16:00:00 17.9 13 Sudoeste 39 Sur 0 974.1 -- 70
2020-11-13 15:00:00 17.9 23 Sur 35 Sur 0 974.3 -- 68
2020-11-13 14:00:00 17.7 16 Sudoeste 30 Sur 0 974.8 -- 69
2020-11-13 13:00:00 17.2 14 Sur 32 Sur 0 975.4 -- 69
2020-11-13 12:00:00 16.3 8 Sur 15 Sur 0 975.6 -- 73
2020-11-13 11:00:00 14.3 6 Sur 9 Sudeste 0 975.6 -- 77
2020-11-13 10:00:00 12.7 4 Sur 9 Sudeste 0 975.6 -- 80
2020-11-13 09:00:00 10.4 5 Sur 8 Sur 0 975 -- 88
2020-11-13 08:00:00 10.1 4 Sur 9 Sur 0 974.7 -- 92
2020-11-13 07:00:00 10.1 5 Sur 8 Sur 0 974.5 -- 92
2020-11-13 06:00:00 10.4 4 Sur 9 Sur 0 974.7 -- 92
2020-11-13 05:00:00 10.7 6 Sur 9 Sur 0 974.9 -- 93
2020-11-13 04:00:00 11.8 4 Sur 9 Sur 0 975.1 -- 88
2020-11-13 03:00:00 13.1 5 Sudoeste 9 Sudoeste 0 975.2 -- 79
2020-11-13 02:00:00 13.2 4 Sudoeste 11 Sudoeste 0 975.2 -- 79
2020-11-13 01:00:00 13.5 3 Sur 8 Sur 0 975.4 -- 81
2020-11-13 00:00:00 13.6 3 Sudoeste 9 Sur 0 975.5 -- 83
2020-11-12 23:00:00 13.8 3 Sur 5 Sudoeste 0 975.6 -- 85
2020-11-12 22:00:00 13.6 0 Calma 8 Sur 0 975.5 -- 89
2020-11-12 21:00:00 13.8 3 Sur 11 Sudoeste 0 975.2 -- 87
2020-11-12 20:00:00 14.4 7 Sudoeste 11 Sur 0 975.5 -- 83
2020-11-12 19:00:00 14.4 8 Sudoeste 17 Sudoeste 0 975.2 -- 82
2020-11-12 18:00:00 15.2 9 Sudoeste 17 Sudoeste 0 975.3 -- 79
2020-11-12 17:00:00 16.7 10 Sudoeste 21 Sudoeste 0 975.3 -- 73
2020-11-12 16:00:00 17.9 12 Sudoeste 22 Sudoeste 0 975.3 -- 71
2020-11-12 15:00:00 17.8 13 Sudoeste 28 Sudoeste 0 975.6 -- 69
2020-11-12 14:00:00 17.8 13 Sudoeste 33 Sur 0 976.3 -- 69
2020-11-12 13:00:00 17.8 16 Sur 35 Sur 0 977 -- 67
2020-11-12 12:00:00 17.1 14 Sur 24 Sudoeste 0 977.5 -- 69
2020-11-12 11:00:00 15.8 14 Sur 21 Sur 0 977.6 -- 67
2020-11-12 10:00:00 13.4 10 Sur 22 Sur 0 977.8 -- 74
2020-11-12 09:00:00 12.6 13 Sur 22 Sur 0 977.6 -- 74
2020-11-12 08:00:00 12.7 12 Sur 22 Sur 0 977.3 -- 72
2020-11-12 07:00:00 12.6 12 Sur 21 Sur 0 977.3 -- 76
2020-11-12 06:00:00 12.5 14 Sur 22 Sur 0 977 -- 77
2020-11-12 05:00:00 12.8 13 Sur 24 Sur 0 977.1 -- 80
2020-11-12 04:00:00 12.8 13 Sur 24 Sur 0 977.5 -- 85
2020-11-12 03:00:00 12.6 13 Sur 30 Sur 0 977.7 -- 89
2020-11-12 02:00:00 12.5 19 Sur 32 Sur 0 977.8 -- 90
2020-11-12 01:00:00 12.2 16 Sur 33 Sur 0.3 978.2 -- 95
2020-11-12 00:00:00 12.4 16 Sur 30 Sur 0.2 978.3 -- 93
2020-11-11 23:00:00 12.6 19 Sur 28 Sudoeste 0.1 978.2 -- 91
2020-11-11 22:00:00 12 18 Sur 28 Sudoeste 0 977.9 -- 94
2020-11-11 21:00:00 11.8 18 Sudoeste 30 Sur 0 977.6 -- 92
2020-11-11 20:00:00 11.8 13 Sudoeste 35 Sudoeste 0 977.6 -- 87
2020-11-11 19:00:00 13.2 15 Sudoeste 32 Sudoeste 0 977.3 -- 76
2020-11-11 18:00:00 13.9 10 Sudoeste 33 Sur 0 977.1 -- 82
2020-11-11 17:00:00 14.2 18 Sur 35 Sur 0 976.6 -- 81
2020-11-11 16:00:00 14.5 19 Sudoeste 42 Sur 0 976.5 -- 76
2020-11-11 15:00:00 14.8 22 Sudoeste 42 Sur 0 976.5 -- 75
2020-11-11 14:00:00 15.5 23 Sur 39 Sur 0 976.5 -- 72
2020-11-11 13:00:00 15 18 Sur 37 Sur 0 977.2 -- 74
2020-11-11 12:00:00 14.1 19 Sur 37 Sur 0 978 -- 77
2020-11-11 11:00:00 12 5 Sur 11 Sur 0 978.1 -- 87
2020-11-11 10:00:00 10.6 4 Sur 17 Sur 0 978.1 -- 89
2020-11-11 09:00:00 10 10 Sur 17 Sur 0 977.6 -- 90
2020-11-11 08:00:00 9.8 10 Sur 18 Sudeste 0 977.4 -- 91
2020-11-11 07:00:00 10 8 Sudeste 21 Sudeste 0 977.9 -- 91
2020-11-11 06:00:00 9.7 6 Sudeste 13 Sur 0 978.5 -- 91
2020-11-11 05:00:00 9.1 5 Sudeste 15 Sudeste 0 978.9 -- 93
2020-11-11 04:00:00 8.6 6 Sudeste 15 Sudeste 0 979.4 -- 93
2020-11-11 03:00:00 9.1 7 Sur 13 Sur 0 980.2 -- 91
2020-11-11 02:00:00 9.3 7 Sudeste 13 Sudeste 0 980.6 -- 93
2020-11-11 01:00:00 9.4 6 Sudeste 13 Sudeste 0 981 -- 93
2020-11-11 00:00:00 9.5 4 Sur 13 Sudeste 0 981.2 -- 94
2020-11-10 23:00:00 10 6 Sur 15 Sur 0 981.6 -- 95
2020-11-10 22:00:00 10.7 9 Sudeste 11 Sudeste 0 981.8 -- 95
2020-11-10 21:00:00 11.1 6 Sur 9 Sur 0 982.1 -- 92
2020-11-10 20:00:00 11.6 5 Sudoeste -- -- 0 982.4 -- 88
2020-11-10 19:00:00 10.9 -- -- -- -- 0 982.3 -- 91
2020-11-10 18:00:00 14 0 Calma 5 Sudeste 0 982.1 -- 83
2020-11-10 17:00:00 16.2 4 Sur 9 Sudoeste 0 982.2 -- 71
2020-11-10 16:00:00 16.3 2 Oeste 13 Sur 0 982.6 -- 68
2020-11-10 15:00:00 15.8 6 Sur 13 Sur 0 982.8 -- 68
2020-11-10 14:00:00 15.3 6 Sur 15 Sur 0 983.5 -- 70
2020-11-10 13:00:00 14.2 8 Sudeste 15 Este 0 983.8 -- 72
2020-11-10 12:00:00 13.4 10 Sur 21 Este 0 984.4 -- 75
2020-11-10 11:00:00 12.3 8 Sudeste 15 Sudeste 0 984.3 -- 80
2020-11-10 10:00:00 11.1 8 Sudeste 13 Sur 0 984.2 -- 86
2020-11-10 09:00:00 9.7 6 Sur 11 Sur 0 983.9 -- 94
2020-11-10 08:00:00 9.8 2 Sudeste 9 Sur 0 983.5 -- 94
2020-11-10 07:00:00 9.9 3 Sur 5 Sur 0 983.3 -- 94
2020-11-10 06:00:00 9.9 0 Calma 9 Sur 0 983.1 -- 94
2020-11-10 05:00:00 9.8 8 Sur 11 Sudeste 0 982.9 -- 96
2020-11-10 04:00:00 10 8 Sudeste 11 Sudeste 0 982.8 -- 96
2020-11-10 03:00:00 10.2 5 Sur 15 Sur 0 983 -- 98
2020-11-10 02:00:00 10.3 5 Sur 8 Sur 0 983.1 -- 98
2020-11-10 01:00:00 10.3 2 Sur 9 Sur 0 983 -- 99
2020-11-10 00:00:00 10.1 5 Sur 9 Sur 0 982.7 -- 99
2020-11-09 23:00:00 9.4 7 Sur 9 Sur 0 982.7 -- 98
2020-11-09 22:00:00 9.8 3 Sur 13 Oeste 0 982.5 -- 95
2020-11-09 21:00:00 10.3 9 Sudoeste 13 Sur 0 982 -- 96
2020-11-09 20:00:00 11.4 7 Sudoeste 18 Sudoeste 0 981.7 -- 90
2020-11-09 19:00:00 12.1 10 Sudoeste 17 Sudoeste 0 981 -- 90
2020-11-09 18:00:00 13.2 8 Sudoeste 13 Sudoeste 0 980.3 -- 85
2020-11-09 17:00:00 14 9 Oeste 17 Oeste 0 979.9 -- 85
2020-11-09 16:00:00 14.2 8 Sudoeste 21 Oeste 0 979.3 -- 85
2020-11-09 15:00:00 14 9 Oeste 26 Oeste 0.1 978.9 -- 89
2020-11-09 14:00:00 15.2 11 Sudoeste 22 Oeste 0 978.6 -- 84
2020-11-09 13:00:00 13.8 8 Oeste 17 Oeste 0.1 978.6 -- 92
2020-11-09 12:00:00 13.6 10 Sudoeste 22 Sudoeste 0.5 978.4 -- 94
2020-11-09 11:00:00 13.2 12 Sudoeste 22 Sudoeste 0.6 978 -- 97
2020-11-09 10:00:00 13.2 10 Sur 26 Sur 0 977.5 -- 97
2020-11-09 09:00:00 12.5 12 Sudoeste 18 Sur 0 976.6 -- 98
2020-11-09 08:00:00 12.5 10 Sudoeste 22 Oeste 0 975.8 -- 96
2020-11-09 07:00:00 13.2 9 Sudoeste 22 Oeste 0 975.1 -- 96
2020-11-09 06:00:00 13.3 13 Oeste 28 Sudoeste 2.4 974.7 -- 95
2020-11-09 05:00:00 13.2 8 Sudoeste 24 Oeste 3.5 973.9 -- 97
2020-11-09 04:00:00 13.3 17 Sudoeste 32 Sudoeste 2.3 973.8 -- 96
2020-11-09 03:00:00 13.4 15 Sudoeste 37 Oeste 1.7 973.7 -- 95
2020-11-09 02:00:00 13.4 18 Sudoeste 35 Oeste 14.8 973.4 -- 98
2020-11-09 01:00:00 13.6 13 Sur 33 Sur 0 973.3 -- 95
2020-11-09 00:00:00 13.2 16 Sur 33 Sudoeste 0.6 973.1 -- 94
2020-11-08 23:00:00 13.7 17 Sur 37 Sudoeste 0.1 973.2 -- 97
2020-11-08 22:00:00 13.4 11 Sudoeste 35 Sur 0.7 972.8 -- 97
2020-11-08 21:00:00 13.4 17 Sur 33 Sur 0.9 972.5 -- 95
2020-11-08 20:00:00 13.8 19 Sur 32 Sur 0 972.3 -- 92
2020-11-08 19:00:00 13.5 14 Sur 37 Sudoeste 0 972.1 -- 93
2020-11-08 18:00:00 13.6 18 Sudoeste 45 Sudoeste 0.8 971.6 -- 93
2020-11-08 17:00:00 13.5 15 Sur 37 Sudoeste 2 971 -- 97
2020-11-08 16:00:00 14.3 19 Sudoeste 39 Sudoeste 1 971 -- 90
2020-11-08 15:00:00 15.8 22 Sudoeste 42 Sudoeste 0 970.7 -- 81
2020-11-08 14:00:00 14.9 16 Sur 48 Sur 0 970.5 -- 90
2020-11-08 13:00:00 15.6 27 Sur 50 Sudoeste 0 970.8 -- 84
2020-11-08 12:00:00 15.5 23 Sur 42 Sur 0.6 971.2 -- 91
2020-11-08 11:00:00 14.3 23 Sur 42 Sur 0.1 971.1 -- 91
2020-11-08 10:00:00 14.1 23 Sudoeste 54 Sur 0 971 -- 93
2020-11-08 09:00:00 12.8 18 Sur 35 Sur 0.2 970.3 -- 89
2020-11-08 08:00:00 12.4 8 Sur 32 Sudeste 0.3 970 -- 97
2020-11-08 07:00:00 11.7 8 Sur 58 Sudoeste 14.6 970.6 -- 95
2020-11-08 06:00:00 13.7 21 Oeste 41 Sudoeste 1.7 971.3 -- 90
2020-11-08 05:00:00 13.1 10 Sur 21 Sudeste 0 970.7 -- 97
2020-11-08 04:00:00 13 8 Sudeste 18 Sur 0 971.4 -- 97
2020-11-08 03:00:00 13.3 10 Sur 24 Sur 0 971.9 -- 96
2020-11-08 02:00:00 13.2 10 Sudeste 17 Sudeste 0 972.3 -- 97
2020-11-08 01:00:00 13.3 6 Sudeste 21 Sudeste 0.6 972.6 -- 96
2020-11-08 00:00:00 13.9 14 Sur 26 Sur 0.3 972.8 -- 92
2020-11-07 23:00:00 13.6 12 Sur 21 Sur 0 973 -- 94
2020-11-07 22:00:00 13.8 9 Sur 26 Sur 0 972.8 -- 94
2020-11-07 21:00:00 13.9 12 Sur 32 Sur 0 972.9 -- 95
2020-11-07 20:00:00 14.3 20 Sur 35 Sur 0.4 972.6 -- 94
2020-11-07 19:00:00 14.3 13 Sur 33 Sur 0.5 972 -- 97
2020-11-07 18:00:00 14.1 13 Sur 26 Sudoeste 2 971.6 -- 96
2020-11-07 17:00:00 14 15 Sudoeste 33 Sur 4.4 971.6 -- 97
2020-11-07 16:00:00 14.2 16 Sur 35 Sur 2.4 970.8 -- 96
2020-11-07 15:00:00 14.4 16 Sur 37 Sur 0.6 970.4 -- 92
2020-11-07 14:00:00 14.7 22 Sur 39 Sur 0 970.1 -- 87
2020-11-07 13:00:00 13.6 21 Sur 39 Sur 0.3 969.9 -- 92
2020-11-07 12:00:00 13.5 24 Sur 41 Sur 0.1 969.7 -- 86
2020-11-07 11:00:00 12.4 7 Sudeste 24 Sudeste 0 969.4 -- 90
2020-11-07 10:00:00 12.2 5 Sudeste 17 Este 0 968.9 -- 89
2020-11-07 09:00:00 10.6 7 Sudeste 18 Sudeste 0 968.4 -- 95
2020-11-07 08:00:00 11.2 10 Sur 17 Sur 0 967.7 -- 92
2020-11-07 07:00:00 10.8 4 Sur 28 Sudeste 0 967.4 -- 93
2020-11-07 06:00:00 11.6 12 Sudeste 21 Sudeste 0 966.9 -- 93
2020-11-07 05:00:00 11.4 5 Sudeste 13 Sudeste 0 966.5 -- 94
2020-11-07 04:00:00 11.8 4 Sur 15 Sudeste 0 966.5 -- 90
2020-11-07 03:00:00 11.9 7 Sur 13 Sur 0 966.5 -- 90
2020-11-07 02:00:00 12.5 8 Sur 21 Sur 0 966.5 -- 87
2020-11-07 01:00:00 12.2 9 Sur 18 Sur 0 966.5 -- 92
2020-11-07 00:00:00 12.3 9 Sur 15 Sur 0 966.4 -- 95
2020-11-06 23:00:00 12.4 8 Sur 13 Sudeste 0 966.3 -- 97
2020-11-06 22:00:00 12.4 2 Sur 13 Sudeste 0 965.6 -- 98
2020-11-06 21:00:00 12.6 2 Este 13 Sur 1 965.5 -- 98
2020-11-06 20:00:00 13.3 6 Sur 17 Sudoeste 0.5 965.9 -- 94
2020-11-06 19:00:00 12.8 3 Sudoeste 5 Sudoeste 0.2 965.5 -- 98
2020-11-06 18:00:00 12.7 2 Este 8 Este 0 965.2 -- 98
2020-11-06 17:00:00 13 0 Calma 11 Nordeste 0 965.2 -- 98
2020-11-06 16:00:00 12.9 6 Sur 21 Sur 0.2 965.6 -- 96
2020-11-06 15:00:00 13 10 Sudoeste 18 Sudoeste 0.3 966.2 -- 93
2020-11-06 14:00:00 13.2 9 Sur 17 Sur 0.4 967.3 -- 94
2020-11-06 13:00:00 13.3 9 Sudeste 26 Sudeste 0.2 968.1 -- 90
2020-11-06 12:00:00 13.5 13 Sudeste 28 Sudeste 0.3 968.6 -- 85
2020-11-06 11:00:00 14.1 10 Sudeste 39 Sur 0 968.3 0.2 81
2020-11-06 10:00:00 14.5 14 Sudeste 28 Sur 0 968.5 -- 72
2020-11-06 09:00:00 13.3 9 Sudeste 24 Sur 0 968.5 -- 78
2020-11-06 08:00:00 13.5 9 Sudeste 30 Sudeste 0 968.1 -- 76
2020-11-06 07:00:00 13.9 13 Sudeste 32 Sur 0 968.6 -- 75
2020-11-06 06:00:00 13.7 13 Sudeste 28 Sudeste 0 968.6 -- 76
2020-11-06 05:00:00 13.1 5 Sur 18 Sudeste 0 968.5 -- 77
2020-11-06 04:00:00 12.9 4 Sudeste 15 Sudeste 0 969.1 -- 81
2020-11-06 03:00:00 12.9 6 Sudeste 17 Sudeste 0 969.3 -- 83
2020-11-06 02:00:00 13.3 9 Sudeste 13 Sur 0 969.9 -- 79
2020-11-06 01:00:00 13 3 Sudoeste 17 Sudeste 0 970.2 -- 78
2020-11-06 00:00:00 14.2 6 Sudeste 17 Sur 0 970.7 -- 73
2020-11-05 23:00:00 14.4 8 Sudeste 30 Este 0 970.9 -- 74
2020-11-05 22:00:00 14.8 10 Sudeste 30 Sudeste 0 971.4 -- 70
2020-11-05 21:00:00 14.3 10 Sudeste 26 Sudeste 0 971.6 -- 72
2020-11-05 20:00:00 14.5 6 Este 24 Sudeste 0 971.7 -- 69
2020-11-05 19:00:00 13.8 5 Este 17 Este 0 972.3 -- 73
2020-11-05 18:00:00 13.6 3 Nordeste 15 Norte 0 972.1 -- 75
2020-11-05 17:00:00 13.5 4 Este 17 Nordeste 0 972.4 -- 76
2020-11-05 16:00:00 12.6 6 Norte 13 Este 0 972.7 -- 78
2020-11-05 15:00:00 12.6 4 Este 15 Este 0 972.9 -- 78
2020-11-05 14:00:00 12.6 4 Nordeste 24 Nordeste 0 973.5 -- 75
2020-11-05 13:00:00 12.2 5 Nordeste 22 Norte 0 974.3 -- 76
2020-11-05 12:00:00 11.4 5 Este 22 Sudeste 0 975.3 -- 76
2020-11-05 11:00:00 10.8 7 Nordeste 28 Este 0 975.6 -- 74
2020-11-05 10:00:00 10.6 6 Este 22 Norte 0 975.9 -- 73
2020-11-05 09:00:00 9.3 3 Nordeste 21 Norte 0 975.8 -- 76
2020-11-05 08:00:00 8.9 8 Norte 26 Norte 0 975.2 -- 75
2020-11-05 07:00:00 8.8 5 Norte 26 Nordeste 0 975.7 -- 73
2020-11-05 06:00:00 8.6 8 Norte 26 Este 0 974.9 -- 74
2020-11-05 05:00:00 8.3 5 Nordeste 22 Este 0 975.7 -- 74
2020-11-05 04:00:00 8.8 7 Nordeste 24 Sudeste 0 976.1 -- 72
2020-11-05 03:00:00 9.2 5 Nordeste 24 Este 0 976.3 -- 69
2020-11-05 02:00:00 9.2 8 Este 28 Nordeste 0 976.4 -- 71
2020-11-05 01:00:00 9.3 7 Nordeste 32 Noroeste 0 976.7 -- 69
2020-11-05 00:00:00 9.3 9 Este 42 Nordeste 0 977 -- 69
2020-11-04 23:00:00 9.7 10 Este 35 Nordeste 0 976.9 -- 66
2020-11-04 22:00:00 9.3 10 Este 35 Norte 0 976.8 -- 67
2020-11-04 21:00:00 9.2 9 Este 39 Norte 0 976.9 -- 70
2020-11-04 20:00:00 9.4 10 Nordeste 39 Este 0 977 -- 71
2020-11-04 19:00:00 9.4 11 Nordeste 37 Nordeste 0 977.1 -- 71
2020-11-04 18:00:00 10.3 10 Nordeste 37 Nordeste 0 977.5 -- 70
2020-11-04 17:00:00 11.5 9 Nordeste 37 Norte 0 977.6 -- 65
2020-11-04 16:00:00 12 10 Nordeste 33 Este 0 977.8 -- 61
2020-11-04 15:00:00 12.5 9 Nordeste 28 Este 0 978.3 -- 61
2020-11-04 14:00:00 12.5 9 Nordeste 30 Este 0 979.3 -- 62
2020-11-04 13:00:00 11.9 8 Este 26 Sudeste 0 980.4 -- 65
2020-11-04 12:00:00 10.7 6 Nordeste 24 Nordeste 0 981.2 -- 77
2020-11-04 11:00:00 9.3 6 Norte 22 Norte 0 982 -0.4 80
2020-11-04 10:00:00 7.9 5 Norte 13 Nordeste 0 982.4 -- 89
2020-11-04 09:00:00 5.8 0 Calma 5 Norte 0 982.5 -- 95
2020-11-04 08:00:00 5.1 0 Calma 8 Noroeste 0 982.4 -- 96
2020-11-04 07:00:00 4.3 0 Calma -- -- 0 982.9 -- 96
2020-11-04 06:00:00 4.9 0 Calma 11 Oeste 0 983.4 -- 96
2020-11-04 05:00:00 4.3 6 Oeste 9 Noroeste 0 984.3 -- 97
2020-11-04 04:00:00 5.1 0 Calma 4 Sudeste 0 984.8 -- 95
2020-11-04 03:00:00 5.4 0 Calma 8 Norte 0 985.6 -- 93
2020-11-04 02:00:00 5.8 2 Norte 11 Norte 0 986.4 -- 93
2020-11-04 01:00:00 6.2 0 Calma 11 Norte 0 986.9 -- 90
2020-11-04 00:00:00 5.4 3 Norte 11 Norte 0 987.8 -- 91
2020-11-03 23:00:00 4.9 9 Norte 13 Norte 0 988.6 -- 90
2020-11-03 22:00:00 6.7 6 Norte 13 Norte 0 989.1 -- 87
2020-11-03 21:00:00 7 3 Norte 18 Norte 0 989.2 -- 87
2020-11-03 20:00:00 7.9 9 Norte 21 Norte 0 989.2 -- 82
2020-11-03 19:00:00 8.6 8 Norte 22 Norte 0 988.9 -- 76
2020-11-03 18:00:00 9.9 10 Norte 33 Norte 0 988.9 -- 72
2020-11-03 17:00:00 11.7 10 Norte 32 Norte 0 989.1 -- 70
2020-11-03 16:00:00 12 17 Norte 35 Norte 0 989.4 -- 66
2020-11-03 15:00:00 12.7 13 Norte 32 Norte 0 989.4 -- 64
2020-11-03 14:00:00 12.9 13 Norte 32 Norte 0 989.7 -- 59
2020-11-03 13:00:00 11.7 18 Norte 33 Norte 0 990.3 -- 71
2020-11-03 12:00:00 11.9 10 Norte 32 Norte 0 990.4 -- 67
2020-11-03 11:00:00 11.5 8 Norte 26 Norte 0 990 -- 75
2020-11-03 10:00:00 10 8 Norte 26 Nordeste 0 989.4 -- 84
2020-11-03 09:00:00 9 9 Norte 22 Norte 0 988.5 -- 87
2020-11-03 08:00:00 9 5 Norte -- -- -- 987.9 -- 91
2020-11-03 07:00:00 9.1 9 Norte 21 Norte 0 987.3 -- 92
2020-11-03 06:00:00 8.8 13 Norte 21 Norte 0 986.8 -- 94
2020-11-03 05:00:00 8.7 12 Norte 21 Norte 0 986.5 -- 98
2020-11-03 04:00:00 8.3 7 Norte 15 Norte 0 986.5 -- 98
2020-11-03 03:00:00 6.8 0 Calma 13 Noroeste 0 986.1 -- 98
2020-11-03 02:00:00 8.8 7 Norte 17 Norte 0 986.1 -- 98
2020-11-03 01:00:00 9 3 Sur 5 Sur 0 985.6 -- 98
2020-11-03 00:00:00 8.8 0 Calma -- -- 0 985.7 -- 98
2020-11-02 23:00:00 7.4 -- -- -- -- 0 985.3 -- 98
2020-11-02 22:00:00 8.2 5 Noroeste -- -- 0 984.9 -- 98
2020-11-02 21:00:00 8.8 5 Noroeste 11 Noroeste 0 984.5 -- 95
2020-11-02 20:00:00 10.3 9 Norte 13 Norte 0 983.8 -- 93
2020-11-02 19:00:00 11.7 10 Norte 13 Norte 0 983.2 -- 93
2020-11-02 18:00:00 13.2 10 Norte 18 Norte 0 982.3 -- 88
2020-11-02 17:00:00 13.9 9 Norte 15 Norte 0 981.7 -- 84
2020-11-02 16:00:00 13.9 9 Norte 15 Norte 0 981.4 -- 87
2020-11-02 15:00:00 13.5 10 Norte 21 Norte 0 981.1 -- 93
2020-11-02 14:00:00 13.8 0 Calma 13 Norte 0.8 981.1 -- 93
2020-11-02 13:00:00 13.8 5 Norte 15 Norte 0.1 981 -- 94
2020-11-02 12:00:00 13.3 14 Norte 39 Norte 0 980.7 -- 94
2020-11-02 11:00:00 14.1 20 Noroeste 37 Noroeste 0.6 979.6 -- 97
2020-11-02 10:00:00 14.8 24 Noroeste 41 Noroeste 1.8 978.6 -- 97
2020-11-02 09:00:00 17.2 17 Sudoeste 30 Oeste 3.1 977.3 -- 99
2020-11-02 08:00:00 17.2 18 Sudoeste 35 Sudoeste 0.4 976.6 -- 99
2020-11-02 07:00:00 17.3 18 Sudoeste 37 Sudoeste 2.2 976.8 -- 98
2020-11-02 06:00:00 17.3 14 Sudoeste 35 Sudoeste 1.5 976.6 -- 99
2020-11-02 05:00:00 17.3 19 Sudoeste 50 Sudoeste 0.4 976.6 -- 99
2020-11-02 04:00:00 17.2 18 Sudoeste 32 Sudoeste 0.3 976.8 -- 99
2020-11-02 03:00:00 17.1 13 Sudoeste 41 Sudoeste 2.4 976.9 -- 99
2020-11-02 02:00:00 17.1 20 Sudoeste 41 Sudoeste 1.5 977.2 -- 99
2020-11-02 01:00:00 17.2 19 Sudoeste 45 Sudoeste 0.2 977.4 -- 98
2020-11-02 00:00:00 16.9 19 Sudoeste 45 Sudoeste 1.6 977.7 -- 98
2020-11-01 23:00:00 17 19 Sudoeste 41 Sudoeste 0.6 977.6 -- 98
2020-11-01 22:00:00 17 19 Sudoeste 35 Sur 0.3 977.5 -- 98
2020-11-01 21:00:00 17.1 22 Sudoeste 48 Oeste 0.3 977.4 -- 97
2020-11-01 20:00:00 17 22 Sudoeste 42 Sur 0.1 977.4 -- 98
2020-11-01 19:00:00 17.1 17 Sudoeste 39 Sur 0.6 977.3 -- 98
2020-11-01 18:00:00 17.4 18 Sudoeste -- -- -- 977.5 -- 98
2020-11-01 17:00:00 17.6 18 Sudoeste 42 Sudoeste 0.3 977.4 -- 98
2020-11-01 16:00:00 17.6 22 Sudoeste 41 Sudoeste 1.9 977.7 -- 99
2020-11-01 15:00:00 17.6 18 Sudoeste 41 Sudoeste 1.5 977.8 -- 99
2020-11-01 14:00:00 17.4 23 Sudoeste 46 Sur 1.4 978.4 -- 99
2020-11-01 13:00:00 17.3 18 Sur 39 Sur 1.7 979.1 -- 99
2020-11-01 12:00:00 16.9 19 Sudoeste 35 Sur 0.8 979.4 -- 99
2020-11-01 11:00:00 16.8 21 Sur 35 Sur 1 979.7 -- 99
2020-11-01 10:00:00 16.6 19 Sur 35 Sur 1.3 979.4 -- 99
2020-11-01 09:00:00 16.4 19 Sur 32 Sudoeste 1.7 979 -- 99
2020-11-01 08:00:00 16.3 16 Sur 35 Sur 1.8 978.4 -- 99
2020-11-01 07:00:00 16.3 16 Sur 33 Sur 1.3 978.3 -- 99
2020-11-01 06:00:00 16.3 21 Sur 41 Sur 1.5 978.1 -- 99
2020-11-01 05:00:00 16.3 22 Sur 37 Sur 1.5 978.4 -- 98
2020-11-01 04:00:00 16.3 22 Sudoeste 41 Sur 0.9 978.6 -- 98
2020-11-01 03:00:00 16.3 22 Sudoeste 41 Sudoeste 0.5 979.2 -- 98
2020-11-01 02:00:00 16.3 21 Sudoeste 46 Sudoeste 0.7 979.4 -- 98
2020-11-01 01:00:00 16.4 24 Sudoeste 54 Sudoeste 0.6 979.2 -- 98
2020-11-01 00:00:00 16.4 24 Sur 41 Sur 0.4 979.6 -- 98
2020-10-31 23:00:00 16.4 22 Sudoeste 45 Sur 0.4 979.5 -- 99
2020-10-31 22:00:00 16.4 19 Sudoeste 37 Sudoeste 0.6 979.6 -- 99
2020-10-31 21:00:00 16.5 18 Sudoeste 39 Sudoeste 0.5 979.7 -- 99
2020-10-31 20:00:00 16.6 13 Sudoeste 37 Sudoeste 2.4 979.5 -- 98
2020-10-31 19:00:00 16.5 18 Sudoeste 41 Sur 0.4 979.3 -- 99
2020-10-31 18:00:00 16.4 25 Sur 42 Sur 0.1 979.2 -- 99
2020-10-31 17:00:00 16.6 20 Sudoeste 35 Sudoeste 1.5 979.3 -- 99
2020-10-31 16:00:00 16.6 18 Sudoeste 39 Sur 2.5 979.4 -- 99
2020-10-31 15:00:00 16.5 22 Sudoeste 41 Sur 1.2 979 -- 99
2020-10-31 14:00:00 16.4 17 Sur 39 Sur 1.3 979.6 -- 99
2020-10-31 13:00:00 16.3 21 Sur 35 Sur 2.2 980.2 -- 99
2020-10-31 12:00:00 16.1 18 Sudoeste 39 Sudoeste 0.6 980.3 -- 99
2020-10-31 11:00:00 15.9 23 Sur 42 Sur 1.1 979.3 -- 99
2020-10-31 10:00:00 15.7 25 Sur 42 Sudoeste 0.1 979.8 -- 99
2020-10-31 09:00:00 15.5 27 Sur 39 Sudoeste 0.3 979.4 -- 98
2020-10-31 08:00:00 15.4 19 Sur 39 Sur 0.2 979.1 -- 98
2020-10-31 07:00:00 15.3 19 Sur 41 Sur 0 979.4 -- 98
2020-10-31 06:00:00 15.1 21 Sudoeste 41 Sur 0.2 979.4 -- 98
2020-10-31 05:00:00 15.1 19 Sur 32 Sur 0.1 979.3 -- 96
2020-10-31 04:00:00 14.6 22 Sur 35 Sur 0.2 979.2 -- 98
2020-10-31 03:00:00 14.6 11 Sudoeste 28 Sudoeste 0 979.6 -- 95
2020-10-31 02:00:00 14.7 14 Sur 32 Sur 0 979.5 -- 93
2020-10-31 01:00:00 15.2 15 Sur 26 Sur 0 979.8 -- 88
2020-10-31 00:00:00 15 13 Sur 22 Sur 0 979.8 -- 89
2020-10-30 23:00:00 14.8 12 Sur 18 Sudoeste 0 979.9 -- 89
2020-10-30 22:00:00 13.6 4 Sudoeste 9 Sur 0 979.9 -- 92
2020-10-30 21:00:00 14.6 6 Sudoeste 15 Sur 0 980.2 -- 88
2020-10-30 20:00:00 15.1 7 Sur 21 Sudoeste 0 980.2 -- 86
2020-10-30 19:00:00 15.8 13 Sudoeste 24 Oeste 0 980.1 -- 84
2020-10-30 18:00:00 16.9 9 Sudoeste 21 Sudoeste 0 979.7 -- 83
2020-10-30 17:00:00 18.3 11 Sudoeste 22 Sur 0 979.6 -- 78
2020-10-30 16:00:00 18.9 15 Sudoeste 28 Sudoeste 0 980.1 -- 73
2020-10-30 15:00:00 18.5 16 Sudoeste 30 Sudoeste 0 980.5 -- 73
2020-10-30 14:00:00 17.9 15 Sudoeste 30 Sudoeste 0 980.9 -- 74
2020-10-30 13:00:00 17.6 14 Sudoeste 30 Sur 0 981.3 -- 76
2020-10-30 12:00:00 16.6 10 Sur 15 Sur 0 981.5 -- 78
2020-10-30 11:00:00 15.3 4 Sudeste 11 Sudeste 0 981.7 -- 81
2020-10-30 10:00:00 13.5 4 Sudeste 8 Sur 0 981.6 -- 83
2020-10-30 09:00:00 10.2 5 Sur 13 Sudeste 0 981.3 -- 95
2020-10-30 08:00:00 9.4 4 Sur 9 Sudeste 0 980.8 -- 96
2020-10-30 07:00:00 9.9 2 Sur 9 Sur 0 981 -- 95
2020-10-30 06:00:00 10 3 Sudoeste 8 Sur 0 981.1 -- 94
2020-10-30 05:00:00 10.7 4 Sur 8 Sur 0 981.1 -- 90
2020-10-30 04:00:00 10.7 3 Sur 8 Sur 0 981.4 -- 90
2020-10-30 03:00:00 10.2 0 Calma 9 Sudeste 0 981.5 -- 94
2020-10-30 02:00:00 10.6 4 Sur 8 Sudeste 0 981.7 -- 93
2020-10-30 01:00:00 10.7 2 Sur 5 Sur 0 981.9 -- 95
2020-10-30 00:00:00 10.8 0 Calma 5 Sudeste 0 982 -- 95
2020-10-29 23:00:00 10.9 0 Calma 4 Sur 0 982.1 -- 94
2020-10-29 22:00:00 11.5 2 Sur 8 Sudoeste 0 981.9 -- 89
2020-10-29 21:00:00 10.6 5 Sudoeste 8 Sudoeste 0 981.8 -- 89
2020-10-29 20:00:00 11.7 3 Sudoeste 11 Sudoeste 0 981.5 -- 84
2020-10-29 19:00:00 12.5 6 Sudoeste 13 Sudoeste 0 981 -- 82
2020-10-29 18:00:00 14.3 9 Sudoeste 17 Sur 0 981 -- 77
2020-10-29 17:00:00 15.6 8 Sudoeste 21 Sudoeste 0 981.2 -- 73
2020-10-29 16:00:00 16 12 Sudoeste 26 Sur 0 981.5 -- 70
2020-10-29 15:00:00 15.9 15 Sudoeste 24 Sudoeste 0 982.1 -- 71
2020-10-29 14:00:00 15.4 10 Sudoeste 22 Sur 0 982.7 -- 74
2020-10-29 13:00:00 14.7 14 Sudoeste 22 Oeste 0 983.2 -- 74
2020-10-29 12:00:00 14.3 12 Sudoeste 18 Sudoeste 0 983.3 -- 77
2020-10-29 11:00:00 13.8 4 Sur 13 Sur 0 983 -- 80
2020-10-29 10:00:00 13.1 6 Sudeste 11 Sur 0 982.7 -- 85
2020-10-29 09:00:00 11.8 4 Sur 13 Sudoeste 0 982.2 -- 91
2020-10-29 08:00:00 11.6 0 Calma 8 Sur 0 981.7 -- 93
2020-10-29 07:00:00 11.7 4 Sur 9 Sudeste 0 981.7 -- 93
2020-10-29 06:00:00 12 2 Sur 9 Sudoeste 0 981.6 -- 92
2020-10-29 05:00:00 11.6 5 Sudoeste 8 Sur 0 981.7 -- 97
2020-10-29 04:00:00 11.5 4 Sur 8 Sudeste 0 981.7 -- 98
2020-10-29 03:00:00 11.6 5 Sur 9 Sur 0 982.2 -- 98
2020-10-29 02:00:00 11.8 3 Sur 5 Sur 0 982.3 -- 98
2020-10-29 01:00:00 11.9 5 Sur 9 Sudoeste 0 982.1 -- 98
2020-10-29 00:00:00 11.9 5 Sur 11 Sudoeste 0 982.1 -- 98
2020-10-28 23:00:00 12.1 8 Sur 13 Sudoeste 0.1 981.9 -- 96
2020-10-28 22:00:00 12.2 8 Sudoeste 13 Sudoeste 0 981.7 -- 92
2020-10-28 21:00:00 12.3 7 Sudoeste 11 Sudoeste 0 981.6 -- 89
2020-10-28 20:00:00 11.6 7 Sudoeste 15 Sudoeste 0 981.2 -- 93
2020-10-28 19:00:00 12.2 9 Sudoeste 22 Sudoeste 0 980.6 -- 89
2020-10-28 18:00:00 13.6 10 Sudoeste 24 Sudoeste 0 980.5 -- 85
2020-10-28 17:00:00 14 13 Sudoeste 24 Sudoeste 0 980.2 -- 84
2020-10-28 16:00:00 15.6 12 Sudoeste 24 Oeste 0 979.5 -- 78
2020-10-28 15:00:00 15.4 13 Sudoeste 22 Sudoeste 0 979.2 -- 78
2020-10-28 14:00:00 14.8 10 Sudoeste 22 Sudoeste 0 979.9 -- 83
2020-10-28 13:00:00 13.5 10 Sudoeste 22 Sudoeste 0.1 979.7 -- 92
2020-10-28 12:00:00 13.6 12 Sudoeste 21 Sudoeste 0 979.5 -- 90
2020-10-28 11:00:00 12.7 12 Sudoeste 22 Sur 0 978.8 -- 96
2020-10-28 10:00:00 12.1 12 Sudoeste 21 Sudoeste 0 978.3 -- 98
2020-10-28 09:00:00 11.7 6 Sudoeste 17 Sur 0.3 977.5 -- 96
2020-10-28 08:00:00 11.8 9 Sudoeste 13 Sudoeste 0 976.6 -- 93
2020-10-28 07:00:00 11.4 10 Sudoeste 13 Sudoeste 0 976.1 -- 97
2020-10-28 06:00:00 11.8 10 Sur 13 Sudoeste 0 975.8 -- 98
2020-10-28 05:00:00 11.7 9 Sudoeste 13 Sudoeste 0 975.5 -- 97
2020-10-28 04:00:00 12.3 11 Sudoeste 17 Sudoeste 0 975.3 -- 97
2020-10-28 03:00:00 12.4 10 Sudoeste 15 Sudoeste 0 975.2 -- 99
2020-10-28 02:00:00 12.5 8 Sudoeste 13 Noroeste 0 975.2 -- 97
2020-10-28 01:00:00 13 9 Oeste 21 Oeste 0 975.2 -- 96
2020-10-28 00:00:00 13 9 Sudoeste 15 Sudoeste 0 974.9 -- 99
2020-10-27 23:00:00 13.2 9 Sudoeste 18 Sudoeste 0.1 974.6 -- 97
2020-10-27 22:00:00 13.2 10 Sudoeste 21 Oeste 0.2 974.2 -- 97
2020-10-27 21:00:00 13.2 10 Sudoeste 18 Sudoeste 0 973.3 -- 97
2020-10-27 20:00:00 13.3 9 Oeste 33 Noroeste 0.3 972.7 -- 95
2020-10-27 19:00:00 14.4 22 Oeste 37 Oeste 0.7 972.6 -- 97
2020-10-27 18:00:00 14.5 15 Sudoeste 37 Sudoeste 1.1 971.4 -- 98
2020-10-27 17:00:00 14.4 22 Sudoeste 54 Sudoeste 1.1 971.1 -- 98
2020-10-27 16:00:00 14.2 26 Sudoeste 46 Sudoeste 1.2 971.1 -- 97
2020-10-27 15:00:00 14 23 Sudoeste 50 Sudoeste 0.8 971.5 -- 97
2020-10-27 14:00:00 13.6 24 Sur 39 Sur 1.3 972.2 -- 97
2020-10-27 13:00:00 13.1 28 Sudoeste 48 Sudoeste 1.5 972.7 -- 97
2020-10-27 12:00:00 13.1 25 Sudoeste 48 Sudoeste 0.2 973.1 -- 96
2020-10-27 11:00:00 12.7 28 Sudoeste 46 Sudoeste 0 973.1 -- 97
2020-10-27 10:00:00 12.2 24 Sudoeste 41 Sur 0.1 973.1 -- 97
2020-10-27 09:00:00 11.9 23 Sur 37 Sur 0 972.8 -- 97
2020-10-27 08:00:00 11.4 21 Sudoeste 37 Sur 0.1 972.8 -- 97
2020-10-27 07:00:00 11 16 Sur 35 Sur 0.1 973.3 -- 97
2020-10-27 06:00:00 11.2 19 Sudoeste 35 Sur 0 973.6 -- 94
2020-10-27 05:00:00 11 18 Sudoeste 32 Sudoeste 0.2 973.6 -- 98
2020-10-27 04:00:00 11.2 18 Sudoeste 33 Sudoeste 0.2 974.4 -- 96
2020-10-27 03:00:00 11.3 13 Sudoeste 26 Sudoeste 0.2 974.8 -- 96
2020-10-27 02:00:00 11 13 Sudoeste 26 Sudoeste 0 975.3 -- 96
2020-10-27 01:00:00 10.7 12 Sur 22 Sur 0 975.7 -- 96
2020-10-27 00:00:00 10.4 9 Sur 17 Sur 0 976.2 -- 98
2020-10-26 23:00:00 9.9 8 Sur 17 Sur 0 976.5 -- 98
2020-10-26 22:00:00 9.9 8 Sudoeste 13 Sudoeste 0 976.7 -- 98
2020-10-26 21:00:00 10.2 8 Sudoeste 21 Sur 0 976.9 -- 93
2020-10-26 20:00:00 10.3 15 Sudoeste 30 Sudoeste 0 977.1 -- 97
2020-10-26 19:00:00 10.2 6 Sudoeste 17 Sudoeste 0 976.8 -- 95
2020-10-26 18:00:00 10.8 9 Sudoeste 18 Oeste 0.1 976.8 -- 90
2020-10-26 17:00:00 11 10 Oeste 21 Noroeste 0.3 976.9 -- 91
2020-10-26 16:00:00 12.2 13 Oeste 28 Oeste 0 976.7 -- 87
2020-10-26 15:00:00 12.8 15 Oeste 28 Oeste 0 976.5 -- 82
2020-10-26 14:00:00 11.9 14 Oeste 30 Oeste 0.1 977.1 -- 87
2020-10-26 13:00:00 11.8 13 Sudoeste 26 Sudoeste 0 977.3 -- 87
2020-10-26 12:00:00 11.2 14 Sudoeste 24 Sudoeste 0 977.4 -- 87
2020-10-26 11:00:00 10.3 15 Sudoeste 22 Sudoeste 0 977.2 -- 91
2020-10-26 10:00:00 8.8 7 Sur 21 Sudoeste 0 976.9 -- 96
2020-10-26 09:00:00 8.3 12 Sudoeste 24 Sudoeste 0 976.2 -- 92
2020-10-26 08:00:00 7.2 9 Sudoeste 18 Sudoeste 0.1 975.2 -- 95
2020-10-26 07:00:00 6.6 6 Sudoeste 15 Sudoeste 0 974.6 -- 95
2020-10-26 06:00:00 6 6 Sur 13 Sur 0.2 974 -- 98
2020-10-26 05:00:00 5.9 7 Sur 13 Sur 0.1 973.6 -- 98
2020-10-26 04:00:00 6.8 5 Sudoeste 18 Sudoeste 1.4 973.3 -- 94
2020-10-26 03:00:00 5.6 3 Sudeste 15 Sudoeste 0 973 -- 96
2020-10-26 02:00:00 6.1 4 Sur 18 Sur 0 972.5 -- 97
2020-10-26 01:00:00 7.3 8 Sur 13 Oeste 1.3 972.2 -- 91
2020-10-26 00:00:00 7.6 13 Noroeste 41 Noroeste 2.8 972.4 -- 93